createdAt,value
2019-03-22T00:00:44.189Z,51.52
2019-03-22T00:01:22.024Z,51.52
2019-03-22T00:01:58.043Z,51.40
2019-03-22T00:02:34.005Z,51.40
2019-03-22T00:03:10.062Z,51.78
2019-03-22T00:03:46.337Z,51.98
2019-03-22T00:04:22.283Z,52.04
2019-03-22T00:04:58.473Z,51.92
2019-03-22T00:05:34.429Z,51.92
2019-03-22T00:06:10.399Z,51.87
2019-03-22T00:06:46.350Z,52.01
2019-03-22T00:07:22.835Z,52.01
2019-03-22T00:07:59.009Z,51.81
2019-03-22T00:08:34.984Z,51.81
2019-03-22T00:09:11.418Z,51.81
2019-03-22T00:09:47.773Z,51.72
2019-03-22T00:10:24.107Z,51.66
2019-03-22T00:11:00.117Z,51.91
2019-03-22T00:11:36.608Z,51.83
2019-03-22T00:12:12.550Z,51.61
2019-03-22T00:12:48.511Z,51.71
2019-03-22T00:13:24.879Z,51.70
2019-03-22T00:14:00.981Z,51.70
2019-03-22T00:14:37.260Z,51.78
2019-03-22T00:15:13.453Z,51.58
2019-03-22T00:15:49.967Z,51.95
2019-03-22T00:16:25.945Z,51.95
2019-03-22T00:17:02.376Z,52.07
2019-03-22T00:17:38.341Z,52.30
2019-03-22T00:18:14.304Z,52.32
2019-03-22T00:18:51.660Z,52.32
2019-03-22T00:19:27.661Z,52.78
2019-03-22T00:20:03.782Z,52.78
2019-03-22T00:20:40.197Z,52.56
2019-03-22T00:21:16.159Z,52.84
2019-03-22T00:21:52.497Z,52.77
2019-03-22T00:22:28.963Z,53.02
2019-03-22T00:23:05.262Z,53.24
2019-03-22T00:23:41.544Z,53.24
2019-03-22T00:24:18.209Z,53.17
2019-03-22T00:24:54.480Z,52.50
2019-03-22T00:25:31.230Z,52.50
2019-03-22T00:26:07.893Z,52.53
2019-03-22T00:26:44.189Z,52.53
2019-03-22T00:27:20.165Z,53.00
2019-03-22T00:27:56.485Z,53.00
2019-03-22T00:28:32.491Z,52.68
2019-03-22T00:29:08.881Z,52.68
2019-03-22T00:29:45.510Z,53.40
2019-03-22T00:30:21.950Z,53.40
2019-03-22T00:30:58.356Z,52.88
2019-03-22T00:31:35.018Z,53.09
2019-03-22T00:32:11.383Z,53.09
2019-03-22T00:32:47.598Z,52.92
2019-03-22T00:33:23.572Z,52.92
2019-03-22T00:33:59.547Z,52.99
2019-03-22T00:34:35.850Z,52.75
2019-03-22T00:35:12.038Z,52.75
2019-03-22T00:35:48.008Z,52.95
2019-03-22T00:36:23.990Z,52.95
2019-03-22T00:37:00.239Z,53.03
2019-03-22T00:37:36.621Z,53.03
2019-03-22T00:38:12.592Z,53.08
2019-03-22T00:38:48.991Z,53.07
2019-03-22T00:39:25.370Z,53.17
2019-03-22T00:40:01.721Z,53.28
2019-03-22T00:40:38.360Z,53.48
2019-03-22T00:41:14.415Z,53.48
2019-03-22T00:41:50.913Z,53.58
2019-03-22T00:42:27.512Z,53.58
2019-03-22T00:43:03.518Z,53.31
2019-03-22T00:43:39.573Z,53.31
2019-03-22T00:44:16.816Z,53.02
2019-03-22T00:44:52.779Z,53.02
2019-03-22T00:45:29.235Z,53.29
2019-03-22T00:46:05.286Z,53.09
2019-03-22T00:46:41.273Z,53.47
2019-03-22T00:47:17.573Z,53.47
2019-03-22T00:47:53.872Z,53.51
2019-03-22T00:48:30.260Z,53.49
2019-03-22T00:49:06.640Z,53.63
2019-03-22T00:49:44.170Z,54.28
2019-03-22T00:50:20.594Z,54.28
2019-03-22T00:50:56.628Z,53.93
2019-03-22T00:51:32.613Z,53.60
2019-03-22T00:52:08.588Z,53.60
2019-03-22T00:52:44.554Z,53.70
2019-03-22T00:53:20.970Z,53.65
2019-03-22T00:53:57.292Z,53.64
2019-03-22T00:54:33.333Z,53.42
2019-03-22T00:55:10.110Z,53.73
2019-03-22T00:55:46.159Z,53.70
2019-03-22T00:56:22.248Z,53.70
2019-03-22T00:56:58.542Z,53.58
2019-03-22T00:57:34.892Z,53.66
2019-03-22T00:58:11.150Z,53.66
2019-03-22T00:58:47.300Z,53.58
2019-03-22T00:59:23.552Z,53.82
2019-03-22T00:59:59.666Z,53.82
2019-03-22T01:00:36.037Z,53.70
2019-03-22T01:01:12.325Z,53.97
2019-03-22T01:01:48.556Z,53.97
2019-03-22T01:02:24.528Z,53.84
2019-03-22T01:03:00.645Z,53.73
2019-03-22T01:03:36.620Z,53.73
2019-03-22T01:04:12.892Z,53.72
2019-03-22T01:04:49.317Z,53.72
2019-03-22T01:05:25.485Z,53.77
2019-03-22T01:06:02.514Z,53.87
2019-03-22T01:06:38.464Z,53.65
2019-03-22T01:07:14.432Z,53.70
2019-03-22T01:07:51.197Z,53.70
2019-03-22T01:08:27.144Z,53.79
2019-03-22T01:09:03.779Z,53.78
2019-03-22T01:09:39.761Z,53.52
2019-03-22T01:10:15.930Z,53.32
2019-03-22T01:10:51.892Z,52.93
2019-03-22T01:11:28.869Z,52.88
2019-03-22T01:12:05.165Z,52.88
2019-03-22T01:12:41.518Z,52.82
2019-03-22T01:13:17.581Z,52.80
2019-03-22T01:13:53.557Z,52.16
2019-03-22T01:14:29.900Z,52.16
2019-03-22T01:15:07.115Z,52.21
2019-03-22T01:15:43.405Z,51.76
2019-03-22T01:16:19.664Z,51.76
2019-03-22T01:16:55.914Z,51.88
2019-03-22T01:17:32.079Z,51.32
2019-03-22T01:18:08.861Z,51.37
2019-03-22T01:18:45.176Z,51.37
2019-03-22T01:19:21.133Z,51.09
2019-03-22T01:19:57.822Z,50.89
2019-03-22T01:20:33.808Z,50.89
2019-03-22T01:21:10.863Z,50.56
2019-03-22T01:21:47.467Z,50.56
2019-03-22T01:22:23.885Z,50.28
2019-03-22T01:23:00.294Z,50.31
2019-03-22T01:23:36.531Z,50.37
2019-03-22T01:24:12.791Z,50.37
2019-03-22T01:24:48.765Z,50.37
2019-03-22T01:25:25.134Z,49.91
2019-03-22T01:26:01.165Z,50.01
2019-03-22T01:26:37.387Z,49.66
2019-03-22T01:27:13.651Z,49.50
2019-03-22T01:27:49.892Z,49.50
2019-03-22T01:28:26.991Z,49.38
2019-03-22T01:29:03.438Z,49.26
2019-03-22T01:29:39.485Z,49.23
2019-03-22T01:30:18.068Z,49.34
2019-03-22T01:30:54.193Z,49.19
2019-03-22T01:31:30.190Z,49.19
2019-03-22T01:32:07.500Z,49.25
2019-03-22T01:32:43.463Z,49.14
2019-03-22T01:33:19.403Z,49.20
2019-03-22T01:33:55.938Z,49.23
2019-03-22T01:34:32.932Z,48.99
2019-03-22T01:35:09.220Z,49.02
2019-03-22T01:35:45.275Z,48.98
2019-03-22T01:36:21.229Z,48.89
2019-03-22T01:36:57.228Z,48.79
2019-03-22T01:37:33.524Z,48.57
2019-03-22T01:38:09.471Z,48.70
2019-03-22T01:38:45.522Z,48.88
2019-03-22T01:39:21.875Z,48.92
2019-03-22T01:39:58.352Z,48.78
2019-03-22T01:40:34.592Z,48.70
2019-03-22T01:41:10.645Z,48.41
2019-03-22T01:41:46.789Z,48.41
2019-03-22T01:42:23.034Z,48.34
2019-03-22T01:42:59.426Z,48.45
2019-03-22T01:43:35.646Z,48.36
2019-03-22T01:44:11.604Z,48.47
2019-03-22T01:44:48.354Z,48.54
2019-03-22T01:45:24.996Z,48.45
2019-03-22T01:46:01.272Z,48.58
2019-03-22T01:46:37.551Z,48.53
2019-03-22T01:47:13.514Z,48.51
2019-03-22T01:47:49.481Z,48.51
2019-03-22T01:48:25.501Z,48.47
2019-03-22T01:49:02.656Z,48.51
2019-03-22T01:49:38.919Z,48.59
2019-03-22T01:50:16.067Z,48.39
2019-03-22T01:50:52.524Z,48.39
2019-03-22T01:51:28.473Z,47.96
2019-03-22T01:52:04.522Z,48.09
2019-03-22T01:52:41.171Z,47.65
2019-03-22T01:53:18.372Z,47.65
2019-03-22T01:53:54.349Z,47.87
2019-03-22T01:54:30.278Z,48.11
2019-03-22T01:55:06.300Z,48.11
2019-03-22T01:55:42.653Z,48.17
2019-03-22T01:56:18.902Z,48.27
2019-03-22T01:56:54.867Z,48.32
2019-03-22T01:57:31.116Z,48.61
2019-03-22T01:58:07.083Z,48.61
2019-03-22T01:58:43.035Z,48.38
2019-03-22T01:59:20.393Z,48.75
2019-03-22T01:59:56.744Z,48.75
2019-03-22T02:00:33.393Z,48.26
2019-03-22T02:01:09.765Z,48.03
2019-03-22T02:01:46.410Z,48.03
2019-03-22T02:02:23.678Z,48.27
2019-03-22T02:03:00.081Z,47.85
2019-03-22T02:03:36.785Z,48.08
2019-03-22T02:04:13.115Z,48.23
2019-03-22T02:04:49.060Z,48.39
2019-03-22T02:05:25.228Z,48.41
2019-03-22T02:06:01.553Z,48.03
2019-03-22T02:06:37.779Z,47.79
2019-03-22T02:07:14.032Z,47.73
2019-03-22T02:07:50.336Z,47.84
2019-03-22T02:08:26.375Z,47.97
2019-03-22T02:09:02.416Z,47.86
2019-03-22T02:09:38.621Z,47.95
2019-03-22T02:10:14.739Z,48.14
2019-03-22T02:10:51.048Z,48.14
2019-03-22T02:11:27.000Z,48.14
2019-03-22T02:12:03.267Z,48.29
2019-03-22T02:12:39.322Z,48.28
2019-03-22T02:13:15.258Z,48.29
2019-03-22T02:13:51.946Z,48.46
2019-03-22T02:14:27.927Z,48.50
2019-03-22T02:15:05.490Z,48.52
2019-03-22T02:15:42.302Z,48.65
2019-03-22T02:16:18.934Z,48.65
2019-03-22T02:16:55.403Z,48.58
2019-03-22T02:17:31.477Z,48.70
2019-03-22T02:18:07.858Z,48.70
2019-03-22T02:18:43.817Z,48.43
2019-03-22T02:19:20.123Z,48.71
2019-03-22T02:19:56.207Z,48.71
2019-03-22T02:20:32.211Z,48.41
2019-03-22T02:21:08.353Z,48.44
2019-03-22T02:21:45.859Z,48.43
2019-03-22T02:22:22.187Z,48.32
2019-03-22T02:22:58.869Z,48.32
2019-03-22T02:23:35.116Z,48.17
2019-03-22T02:24:11.272Z,48.43
2019-03-22T02:24:47.213Z,48.53
2019-03-22T02:25:23.201Z,48.41
2019-03-22T02:25:59.319Z,48.12
2019-03-22T02:26:35.263Z,48.26
2019-03-22T02:27:11.256Z,48.19
2019-03-22T02:27:47.615Z,48.34
2019-03-22T02:28:23.912Z,48.34
2019-03-22T02:28:59.929Z,48.54
2019-03-22T02:29:35.875Z,48.70
2019-03-22T02:30:12.182Z,48.75
2019-03-22T02:30:48.490Z,48.85
2019-03-22T02:31:24.757Z,48.83
2019-03-22T02:32:00.732Z,48.87
2019-03-22T02:32:36.671Z,48.95
2019-03-22T02:33:12.931Z,49.00
2019-03-22T02:33:48.977Z,48.97
2019-03-22T02:34:24.936Z,48.83
2019-03-22T02:35:00.934Z,49.54
2019-03-22T02:35:37.713Z,49.54
2019-03-22T02:36:13.687Z,49.14
2019-03-22T02:36:49.649Z,49.34
2019-03-22T02:37:26.244Z,49.34
2019-03-22T02:38:02.321Z,49.40
2019-03-22T02:38:38.375Z,48.86
2019-03-22T02:39:14.403Z,48.64
2019-03-22T02:39:51.244Z,48.70
2019-03-22T02:40:27.470Z,48.70
2019-03-22T02:41:03.540Z,48.87
2019-03-22T02:41:39.921Z,48.71
2019-03-22T02:42:16.254Z,48.52
2019-03-22T02:42:52.712Z,48.39
2019-03-22T02:43:28.785Z,48.57
2019-03-22T02:44:04.935Z,48.57
2019-03-22T02:44:40.897Z,48.46
2019-03-22T02:45:17.779Z,48.79
2019-03-22T02:45:53.786Z,48.79
2019-03-22T02:46:29.956Z,48.64
2019-03-22T02:47:05.956Z,48.60
2019-03-22T02:47:42.902Z,48.60
2019-03-22T02:48:19.130Z,48.64
2019-03-22T02:48:55.473Z,48.40
2019-03-22T02:49:31.515Z,48.35
2019-03-22T02:50:17.935Z,48.35
2019-03-22T02:50:46.714Z,48.01
2019-03-22T02:51:23.681Z,48.18
2019-03-22T02:52:00.247Z,48.38
2019-03-22T02:52:36.315Z,48.57
2019-03-22T02:53:12.277Z,48.57
2019-03-22T02:53:48.246Z,48.60
2019-03-22T02:54:24.213Z,48.74
2019-03-22T02:55:00.353Z,49.03
2019-03-22T02:55:36.637Z,49.03
2019-03-22T02:56:12.751Z,48.82
2019-03-22T02:56:49.151Z,48.92
2019-03-22T02:57:25.205Z,49.08
2019-03-22T02:58:01.574Z,49.15
2019-03-22T02:58:37.889Z,48.86
2019-03-22T02:59:14.540Z,48.51
2019-03-22T02:59:50.589Z,48.84
2019-03-22T03:00:26.577Z,48.82
2019-03-22T03:01:02.544Z,48.96
2019-03-22T03:01:39.326Z,48.96
2019-03-22T03:02:16.416Z,48.87
2019-03-22T03:02:52.432Z,48.87
2019-03-22T03:03:28.496Z,48.85
2019-03-22T03:04:04.440Z,48.85
2019-03-22T03:04:40.385Z,49.19
2019-03-22T03:05:16.645Z,49.19
2019-03-22T03:05:52.617Z,48.58
2019-03-22T03:06:29.062Z,48.58
2019-03-22T03:07:05.188Z,49.07
2019-03-22T03:07:41.567Z,49.07
2019-03-22T03:08:17.629Z,49.53
2019-03-22T03:08:53.996Z,49.36
2019-03-22T03:09:30.000Z,49.36
2019-03-22T03:10:07.669Z,49.37
2019-03-22T03:10:43.663Z,49.09
2019-03-22T03:11:20.891Z,49.08
2019-03-22T03:11:56.870Z,49.28
2019-03-22T03:12:33.209Z,49.26
2019-03-22T03:13:09.162Z,49.88
2019-03-22T03:13:45.434Z,49.88
2019-03-22T03:14:21.910Z,49.87
2019-03-22T03:14:57.963Z,49.92
2019-03-22T03:15:33.934Z,50.06
2019-03-22T03:16:10.293Z,50.18
2019-03-22T03:16:46.526Z,50.45
2019-03-22T03:17:23.166Z,50.06
2019-03-22T03:17:59.233Z,50.06
2019-03-22T03:18:35.573Z,50.56
2019-03-22T03:19:11.566Z,50.55
2019-03-22T03:19:47.527Z,50.55
2019-03-22T03:20:26.629Z,50.44
2019-03-22T03:21:02.945Z,50.20
2019-03-22T03:21:39.580Z,50.20
2019-03-22T03:22:15.559Z,50.86
2019-03-22T03:22:51.913Z,50.92
2019-03-22T03:23:28.439Z,50.41
2019-03-22T03:24:04.674Z,50.41
2019-03-22T03:24:40.996Z,50.45
2019-03-22T03:25:17.326Z,50.54
2019-03-22T03:25:53.369Z,50.82
2019-03-22T03:26:29.369Z,50.88
2019-03-22T03:27:05.327Z,50.92
2019-03-22T03:27:41.409Z,50.92
2019-03-22T03:28:17.452Z,50.93
2019-03-22T03:28:53.719Z,50.96
2019-03-22T03:29:29.799Z,51.24
2019-03-22T03:30:07.907Z,51.31
2019-03-22T03:30:43.861Z,51.43
2019-03-22T03:31:20.198Z,50.86
2019-03-22T03:31:56.210Z,50.86
2019-03-22T03:32:32.201Z,51.05
2019-03-22T03:33:08.259Z,50.99
2019-03-22T03:33:44.233Z,51.34
2019-03-22T03:34:20.205Z,51.34
2019-03-22T03:34:56.569Z,50.86
2019-03-22T03:35:32.541Z,50.75
2019-03-22T03:36:08.837Z,50.75
2019-03-22T03:36:45.958Z,50.81
2019-03-22T03:37:21.915Z,51.07
2019-03-22T03:37:57.898Z,51.07
2019-03-22T03:38:34.022Z,51.08
2019-03-22T03:39:10.214Z,51.43
2019-03-22T03:39:46.470Z,51.62
2019-03-22T03:40:22.816Z,51.62
2019-03-22T03:40:58.863Z,51.59
2019-03-22T03:41:34.859Z,51.59
2019-03-22T03:42:10.813Z,51.68
2019-03-22T03:42:47.326Z,52.09
2019-03-22T03:43:23.685Z,52.09
2019-03-22T03:43:59.668Z,51.94
2019-03-22T03:44:36.474Z,51.94
2019-03-22T03:45:34.081Z,52.04
2019-03-22T03:46:10.128Z,51.79
2019-03-22T03:46:46.075Z,51.89
2019-03-22T03:47:22.040Z,51.65
2019-03-22T03:47:58.125Z,51.65
2019-03-22T03:48:34.181Z,51.93
2019-03-22T03:49:10.776Z,52.05
2019-03-22T03:49:46.768Z,52.10
2019-03-22T03:50:24.602Z,52.45
2019-03-22T03:51:01.422Z,52.47
2019-03-22T03:51:37.840Z,52.47
2019-03-22T03:52:14.264Z,52.24
2019-03-22T03:52:50.316Z,52.14
2019-03-22T03:53:26.793Z,51.96
2019-03-22T03:54:03.518Z,51.96
2019-03-22T03:54:39.592Z,52.35
2019-03-22T03:55:15.615Z,52.38
2019-03-22T03:55:51.866Z,52.77
2019-03-22T03:56:28.254Z,52.77
2019-03-22T03:57:04.226Z,52.39
2019-03-22T03:57:40.469Z,52.54
2019-03-22T03:58:16.874Z,52.65
2019-03-22T03:58:53.202Z,52.90
2019-03-22T03:59:29.305Z,52.96
2019-03-22T04:00:06.922Z,52.96
2019-03-22T04:00:42.938Z,53.10
2019-03-22T04:01:18.913Z,53.10
2019-03-22T04:01:55.270Z,53.44
2019-03-22T04:02:31.366Z,53.50
2019-03-22T04:03:07.529Z,53.50
2019-03-22T04:03:43.891Z,53.50
2019-03-22T04:04:20.199Z,53.69
2019-03-22T04:04:56.580Z,53.85
2019-03-22T04:05:33.089Z,53.78
2019-03-22T04:06:09.051Z,53.61
2019-03-22T04:06:45.459Z,53.61
2019-03-22T04:07:21.727Z,53.79
2019-03-22T04:07:58.115Z,53.88
2019-03-22T04:08:34.419Z,54.00
2019-03-22T04:09:10.692Z,54.30
2019-03-22T04:09:46.661Z,54.30
2019-03-22T04:10:22.870Z,54.33
2019-03-22T04:11:00.092Z,54.33
2019-03-22T04:11:36.075Z,54.38
2019-03-22T04:12:12.129Z,54.47
2019-03-22T04:12:48.435Z,54.69
2019-03-22T04:13:24.414Z,54.69
2019-03-22T04:14:01.100Z,54.39
2019-03-22T04:14:37.075Z,54.39
2019-03-22T04:15:13.245Z,54.29
2019-03-22T04:15:49.222Z,54.29
2019-03-22T04:16:25.317Z,54.36
2019-03-22T04:17:01.303Z,54.30
2019-03-22T04:17:37.286Z,54.10
2019-03-22T04:18:13.225Z,54.10
2019-03-22T04:18:49.300Z,54.24
2019-03-22T04:19:25.605Z,54.24
2019-03-22T04:20:01.865Z,54.14
2019-03-22T04:20:37.827Z,54.16
2019-03-22T04:21:13.932Z,54.30
2019-03-22T04:21:50.797Z,54.36
2019-03-22T04:22:27.110Z,54.40
2019-03-22T04:23:03.123Z,54.40
2019-03-22T04:23:39.084Z,54.35
2019-03-22T04:24:15.039Z,54.35
2019-03-22T04:24:51.013Z,54.09
2019-03-22T04:25:27.649Z,54.09
2019-03-22T04:26:03.760Z,54.02
2019-03-22T04:26:40.428Z,54.24
2019-03-22T04:27:16.380Z,54.34
2019-03-22T04:27:52.468Z,54.45
2019-03-22T04:28:28.902Z,54.45
2019-03-22T04:29:07.732Z,54.55
2019-03-22T04:29:42.714Z,54.73
2019-03-22T04:30:18.671Z,54.73
2019-03-22T04:30:54.641Z,55.08
2019-03-22T04:31:30.786Z,55.08
2019-03-22T04:32:06.864Z,54.89
2019-03-22T04:32:42.811Z,54.89
2019-03-22T04:33:19.361Z,55.08
2019-03-22T04:33:55.333Z,55.10
2019-03-22T04:34:31.400Z,55.21
2019-03-22T04:35:07.806Z,55.11
2019-03-22T04:35:44.054Z,55.59
2019-03-22T04:36:20.050Z,55.59
2019-03-22T04:36:56.046Z,55.59
2019-03-22T04:37:32.076Z,55.60
2019-03-22T04:38:08.248Z,55.55
2019-03-22T04:38:44.517Z,55.55
2019-03-22T04:39:21.222Z,55.63
2019-03-22T04:39:57.232Z,55.63
2019-03-22T04:40:33.290Z,55.55
2019-03-22T04:41:09.686Z,55.30
2019-03-22T04:41:45.671Z,55.50
2019-03-22T04:42:22.476Z,55.40
2019-03-22T04:42:58.749Z,55.40
2019-03-22T04:43:34.721Z,55.63
2019-03-22T04:44:10.791Z,55.63
2019-03-22T04:44:47.028Z,55.49
2019-03-22T04:45:23.550Z,55.63
2019-03-22T04:46:00.519Z,55.40
2019-03-22T04:46:38.326Z,55.48
2019-03-22T04:47:17.651Z,55.48
2019-03-22T04:47:58.607Z,55.30
2019-03-22T04:48:37.012Z,55.41
2019-03-22T04:49:15.061Z,55.41
2019-03-22T04:49:52.460Z,55.47
2019-03-22T04:50:30.682Z,55.55
2019-03-22T04:51:08.340Z,55.63
2019-03-22T04:51:45.541Z,55.75
2019-03-22T04:52:24.800Z,55.71
2019-03-22T04:53:02.435Z,55.77
2019-03-22T04:53:43.303Z,55.75
2019-03-22T04:54:21.721Z,55.82
2019-03-22T04:55:01.137Z,55.60
2019-03-22T04:55:38.573Z,55.65
2019-03-22T04:56:18.064Z,55.66
2019-03-22T04:56:55.467Z,55.66
2019-03-22T04:57:33.533Z,55.54
2019-03-22T04:58:12.706Z,55.55
2019-03-22T04:58:50.576Z,55.64
2019-03-22T04:59:28.611Z,55.61
2019-03-22T05:00:05.022Z,55.66
2019-03-22T05:00:41.558Z,55.47
2019-03-22T05:01:19.167Z,55.47
2019-03-22T05:01:57.566Z,55.52
2019-03-22T05:02:34.023Z,55.62
2019-03-22T05:03:12.246Z,55.89
2019-03-22T05:03:48.211Z,55.89
2019-03-22T05:04:26.206Z,55.78
2019-03-22T05:05:03.890Z,55.90
2019-03-22T05:05:40.441Z,56.09
2019-03-22T05:06:19.298Z,56.16
2019-03-22T05:06:56.820Z,56.17
2019-03-22T05:07:33.706Z,56.28
2019-03-22T05:08:10.770Z,56.39
2019-03-22T05:08:47.953Z,56.45
2019-03-22T05:09:26.476Z,56.48
2019-03-22T05:10:02.802Z,56.40
2019-03-22T05:10:39.160Z,56.63
2019-03-22T05:11:17.370Z,56.63
2019-03-22T05:11:55.574Z,56.65
2019-03-22T05:12:32.390Z,56.76
2019-03-22T05:13:11.414Z,56.76
2019-03-22T05:13:50.621Z,56.56
2019-03-22T05:14:28.094Z,56.53
2019-03-22T05:15:04.586Z,56.71
2019-03-22T05:15:41.427Z,56.71
2019-03-22T05:16:20.725Z,56.75
2019-03-22T05:16:56.936Z,56.50
2019-03-22T05:17:34.245Z,56.56
2019-03-22T05:18:11.240Z,56.56
2019-03-22T05:18:50.209Z,56.67
2019-03-22T05:19:28.997Z,56.83
2019-03-22T05:20:06.435Z,56.83
2019-03-22T05:20:44.961Z,56.79
2019-03-22T05:21:24.689Z,56.79
2019-03-22T05:22:02.972Z,56.73
2019-03-22T05:22:39.715Z,56.67
2019-03-22T05:23:16.886Z,56.69
2019-03-22T05:23:55.759Z,56.76
2019-03-22T05:24:33.872Z,56.58
2019-03-22T05:25:12.388Z,56.58
2019-03-22T05:25:50.836Z,56.89
2019-03-22T05:26:29.875Z,56.87
2019-03-22T05:27:07.672Z,56.92
2019-03-22T05:27:45.622Z,56.98
2019-03-22T05:28:22.431Z,56.95
2019-03-22T05:28:59.880Z,57.06
2019-03-22T05:29:38.881Z,57.11
2019-03-22T05:30:38.415Z,57.11
2019-03-22T05:32:06.934Z,57.21
2019-03-22T05:32:43.235Z,57.15
2019-03-22T05:33:19.621Z,57.16
2019-03-22T05:33:55.698Z,57.16
2019-03-22T05:34:31.693Z,57.07
2019-03-22T05:35:07.683Z,57.07
2019-03-22T05:35:43.971Z,57.22
2019-03-22T05:36:20.008Z,57.25
2019-03-22T05:36:56.670Z,57.17
2019-03-22T05:37:32.736Z,57.27
2019-03-22T05:38:08.691Z,57.27
2019-03-22T05:38:44.659Z,57.29
2019-03-22T05:39:20.912Z,57.32
2019-03-22T05:39:56.897Z,57.32
2019-03-22T05:40:33.273Z,57.15
2019-03-22T05:41:09.930Z,57.15
2019-03-22T05:41:45.901Z,57.17
2019-03-22T05:42:21.881Z,57.06
2019-03-22T05:42:58.003Z,57.06
2019-03-22T05:43:33.970Z,57.08
2019-03-22T05:44:10.281Z,56.80
2019-03-22T05:44:46.237Z,56.80
2019-03-22T05:45:22.572Z,56.91
2019-03-22T05:45:58.692Z,56.91
2019-03-22T05:46:34.989Z,56.59
2019-03-22T05:47:11.064Z,56.59
2019-03-22T05:47:47.055Z,56.62
2019-03-22T05:48:23.008Z,56.69
2019-03-22T05:48:59.555Z,56.64
2019-03-22T05:49:35.696Z,56.64
2019-03-22T05:50:11.980Z,56.79
2019-03-22T05:50:48.037Z,56.86
2019-03-22T05:51:23.996Z,56.86
2019-03-22T05:52:00.501Z,56.81
2019-03-22T05:52:36.485Z,56.79
2019-03-22T05:53:12.752Z,56.84
2019-03-22T05:53:49.000Z,56.51
2019-03-22T05:54:25.347Z,56.48
2019-03-22T05:55:01.353Z,56.48
2019-03-22T05:55:37.314Z,56.75
2019-03-22T05:56:13.414Z,56.75
2019-03-22T05:56:49.364Z,56.51
2019-03-22T05:57:25.687Z,56.55
2019-03-22T05:58:01.763Z,56.55
2019-03-22T05:58:37.747Z,56.58
2019-03-22T05:59:13.699Z,56.63
2019-03-22T05:59:50.063Z,56.57
2019-03-22T06:00:26.046Z,56.51
2019-03-22T06:01:02.583Z,56.47
2019-03-22T06:01:38.550Z,56.67
2019-03-22T06:02:14.796Z,56.35
2019-03-22T06:02:51.199Z,56.54
2019-03-22T06:03:27.504Z,56.54
2019-03-22T06:04:04.269Z,56.51
2019-03-22T06:04:40.320Z,56.53
2019-03-22T06:05:17.077Z,56.15
2019-03-22T06:05:53.020Z,56.25
2019-03-22T06:06:29.117Z,56.37
2019-03-22T06:07:05.104Z,56.28
2019-03-22T06:07:41.394Z,56.38
2019-03-22T06:08:17.679Z,56.38
2019-03-22T06:08:53.992Z,56.52
2019-03-22T06:09:31.560Z,56.71
2019-03-22T06:10:09.863Z,56.50
2019-03-22T06:10:45.839Z,56.67
2019-03-22T06:11:21.814Z,56.67
2019-03-22T06:11:57.883Z,56.76
2019-03-22T06:12:35.090Z,56.89
2019-03-22T06:13:11.042Z,56.89
2019-03-22T06:13:47.383Z,56.84
2019-03-22T06:14:23.778Z,56.84
2019-03-22T06:14:59.787Z,56.26
2019-03-22T06:15:35.854Z,56.05
2019-03-22T06:16:12.085Z,55.87
2019-03-22T06:16:48.142Z,54.95
2019-03-22T06:17:24.390Z,54.91
2019-03-22T06:18:00.831Z,54.90
2019-03-22T06:18:37.179Z,54.90
2019-03-22T06:19:13.410Z,54.83
2019-03-22T06:19:49.377Z,54.58
2019-03-22T06:20:26.199Z,54.58
2019-03-22T06:21:02.523Z,54.66
2019-03-22T06:21:39.202Z,54.64
2019-03-22T06:22:16.161Z,54.68
2019-03-22T06:22:52.951Z,54.58
2019-03-22T06:23:28.982Z,54.64
2019-03-22T06:24:04.972Z,54.42
2019-03-22T06:24:41.038Z,54.56
2019-03-22T06:25:17.784Z,54.56
2019-03-22T06:25:55.313Z,54.27
2019-03-22T06:26:31.417Z,54.27
2019-03-22T06:27:07.473Z,54.35
2019-03-22T06:27:43.476Z,53.97
2019-03-22T06:28:20.122Z,53.97
2019-03-22T06:28:56.154Z,53.92
2019-03-22T06:29:32.381Z,53.92
2019-03-22T06:30:08.853Z,54.07
2019-03-22T06:30:44.928Z,53.97
2019-03-22T06:31:20.893Z,53.97
2019-03-22T06:31:56.937Z,53.84
2019-03-22T06:32:33.017Z,53.84
2019-03-22T06:33:09.450Z,53.87
2019-03-22T06:33:45.936Z,53.87
2019-03-22T06:34:21.882Z,53.65
2019-03-22T06:34:57.863Z,53.65
2019-03-22T06:35:34.291Z,53.73
2019-03-22T06:36:10.268Z,53.73
2019-03-22T06:36:46.939Z,53.62
2019-03-22T06:37:22.996Z,53.45
2019-03-22T06:37:59.773Z,53.10
2019-03-22T06:38:36.177Z,53.13
2019-03-22T06:39:12.141Z,53.13
2019-03-22T06:39:48.763Z,53.18
2019-03-22T06:40:24.703Z,53.18
2019-03-22T06:41:00.735Z,52.90
2019-03-22T06:41:36.710Z,52.90
2019-03-22T06:42:13.325Z,52.89
2019-03-22T06:42:49.400Z,52.72
2019-03-22T06:43:25.895Z,53.02
2019-03-22T06:44:01.933Z,53.02
2019-03-22T06:44:38.224Z,53.13
2019-03-22T06:45:14.735Z,53.13
2019-03-22T06:45:51.154Z,53.35
2019-03-22T06:46:27.200Z,52.97
2019-03-22T06:47:03.184Z,52.97
2019-03-22T06:47:39.152Z,52.62
2019-03-22T06:48:15.240Z,52.77
2019-03-22T06:48:51.293Z,52.77
2019-03-22T06:49:27.329Z,52.92
2019-03-22T06:50:03.404Z,52.82
2019-03-22T06:50:39.363Z,52.82
2019-03-22T06:51:15.793Z,52.61
2019-03-22T06:51:52.140Z,52.55
2019-03-22T06:52:28.245Z,52.06
2019-03-22T06:53:04.252Z,52.06
2019-03-22T06:53:40.509Z,51.62
2019-03-22T06:54:16.787Z,51.67
2019-03-22T06:54:52.859Z,51.68
2019-03-22T06:55:29.671Z,51.60
2019-03-22T06:56:05.889Z,51.69
2019-03-22T06:56:41.829Z,51.57
2019-03-22T06:57:17.882Z,51.51
2019-03-22T06:57:54.688Z,51.66
2019-03-22T06:58:32.060Z,51.66
2019-03-22T06:59:08.018Z,51.54
2019-03-22T06:59:43.967Z,51.56
2019-03-22T07:00:19.933Z,51.45
2019-03-22T07:00:56.003Z,51.37
2019-03-22T07:01:32.404Z,51.14
2019-03-22T07:02:08.372Z,51.04
2019-03-22T07:02:44.690Z,50.93
2019-03-22T07:03:20.685Z,50.28
2019-03-22T07:03:57.590Z,50.28
2019-03-22T07:04:33.936Z,50.44
2019-03-22T07:05:10.132Z,50.46
2019-03-22T07:05:46.361Z,50.46
2019-03-22T07:06:22.324Z,50.26
2019-03-22T07:06:58.371Z,50.06
2019-03-22T07:07:34.682Z,49.64
2019-03-22T07:08:10.980Z,49.58
2019-03-22T07:08:46.936Z,49.59
2019-03-22T07:09:23.291Z,49.59
2019-03-22T07:10:00.341Z,49.68
2019-03-22T07:10:36.811Z,49.74
2019-03-22T07:11:12.798Z,49.79
2019-03-22T07:11:48.747Z,49.69
2019-03-22T07:12:25.089Z,49.52
2019-03-22T07:13:01.077Z,48.92
2019-03-22T07:13:37.448Z,48.71
2019-03-22T07:14:13.683Z,48.51
2019-03-22T07:14:49.731Z,48.38
2019-03-22T07:15:25.855Z,48.34
2019-03-22T07:16:01.897Z,48.34
2019-03-22T07:16:37.877Z,48.31
2019-03-22T07:17:14.150Z,48.37
2019-03-22T07:17:50.830Z,48.31
2019-03-22T07:18:26.880Z,48.32
2019-03-22T07:19:03.217Z,48.11
2019-03-22T07:19:39.270Z,48.11
2019-03-22T07:20:16.539Z,48.33
2019-03-22T07:20:52.793Z,48.36
2019-03-22T07:21:29.180Z,48.41
2019-03-22T07:22:05.602Z,48.38
2019-03-22T07:22:42.005Z,48.24
2019-03-22T07:23:18.337Z,48.27
2019-03-22T07:23:54.313Z,48.30
2019-03-22T07:24:30.669Z,48.36
2019-03-22T07:25:07.013Z,48.38
2019-03-22T07:25:43.259Z,48.38
2019-03-22T07:26:19.216Z,48.18
2019-03-22T07:26:55.651Z,47.62
2019-03-22T07:27:32.042Z,47.04
2019-03-22T07:28:08.016Z,46.76
2019-03-22T07:28:44.343Z,46.47
2019-03-22T07:29:20.816Z,45.90
2019-03-22T07:29:56.772Z,45.90
2019-03-22T07:30:33.142Z,45.87
2019-03-22T07:31:09.504Z,45.68
2019-03-22T07:31:45.856Z,45.36
2019-03-22T07:32:21.848Z,45.26
2019-03-22T07:32:58.183Z,45.33
2019-03-22T07:33:34.535Z,45.33
2019-03-22T07:34:10.776Z,45.33
2019-03-22T07:34:46.732Z,45.02
2019-03-22T07:35:22.724Z,44.99
2019-03-22T07:35:59.053Z,44.96
2019-03-22T07:36:35.100Z,44.81
2019-03-22T07:37:11.066Z,44.88
2019-03-22T07:37:47.072Z,44.85
2019-03-22T07:38:23.054Z,44.86
2019-03-22T07:38:59.066Z,44.82
2019-03-22T07:39:35.409Z,44.87
2019-03-22T07:40:11.861Z,44.93
2019-03-22T07:40:47.915Z,45.06
2019-03-22T07:41:23.882Z,44.52
2019-03-22T07:42:00.140Z,44.44
2019-03-22T07:42:36.203Z,44.43
2019-03-22T07:43:12.513Z,44.57
2019-03-22T07:43:48.615Z,44.13
2019-03-22T07:44:24.934Z,43.85
2019-03-22T07:45:00.918Z,43.66
2019-03-22T07:45:37.347Z,43.80
2019-03-22T07:46:19.212Z,43.58
2019-03-22T07:46:55.569Z,43.55
2019-03-22T07:47:32.280Z,43.57
2019-03-22T07:48:08.259Z,43.35
2019-03-22T07:48:44.485Z,43.35
2019-03-22T07:49:20.445Z,43.27
2019-03-22T07:49:56.835Z,43.31
2019-03-22T07:50:33.224Z,43.65
2019-03-22T07:51:09.197Z,43.89